Terminal Aerodrome Forecast
Issued by NWS Shreveport, LA

Home | Current Version | Previous Version | Text Only | Print | Product List | Glossary On
Versions: 1 2 3 4 5 6 7 8 9 10 11 12 13
000
FTUS44 KSHV 302128 AAA
TAFTXK
TAF AMD
KTXK 302128Z 3021/3118 03008KT P6SM VCTS BKN040CB BKN070 BKN250
      TEMPO 3021/3023 VRB15G30KT 1SM +TSRA BR OVC030CB
     FM310000 04009KT P6SM SCT060 SCT090 BKN250
     FM310600 05005KT P6SM BKN250
     FM311600 08008KT P6SM SKC=

USA.gov is the U.S. government's official web portal to all federal, state and local government web resources and services.